Time;durP1;ratioP1;P1;durP2;ratioP2;P2;SDS_P1;SDS_P2;PMS_P1;PMS_P2;Temp;Humidity;BMP_temperature;BMP_pressure;BME280_temperature;BME280_humidity;BME280_pressure;Samples;Min_cycle;Max_cycle;Signal;HPM_P1;HPM_P2
2022/08/02 00:00:08;;;;;;;1.65;1.02;;;;;;;17.43;74.88;97526.00;5025635;28;20048;-64
2022/08/02 00:02:35;;;;;;;5.03;1.20;;;;;;;17.25;75.65;97528.41;5041414;28;20073;-64
2022/08/02 00:05:03;;;;;;;3.45;1.45;;;;;;;17.26;77.97;97531.97;5025480;28;20531;-64
2022/08/02 00:07:30;;;;;;;2.95;1.40;;;;;;;17.28;78.03;97524.28;5025841;28;20096;-64
2022/08/02 00:09:56;;;;;;;4.47;1.35;;;;;;;17.12;79.13;97527.22;5024948;28;20101;-64
2022/08/02 00:12:23;;;;;;;3.17;1.25;;;;;;;17.10;79.54;97529.41;5025774;28;20088;-64
2022/08/02 00:14:50;;;;;;;3.30;1.30;;;;;;;17.16;79.93;97533.72;5026788;28;20501;-64
2022/08/02 00:17:17;;;;;;;3.40;1.60;;;;;;;17.27;79.44;97533.59;5029189;28;20041;-63
2022/08/02 00:19:44;;;;;;;2.72;1.52;;;;;;;17.32;78.77;97532.75;5030061;28;20052;-63
2022/08/02 00:22:11;;;;;;;3.30;1.60;;;;;;;17.27;79.63;97528.13;5022983;28;20045;-63
2022/08/02 00:24:38;;;;;;;3.15;1.65;;;;;;;17.17;80.00;97534.53;5023133;28;20060;-64
2022/08/02 00:27:07;;;;;;;3.83;1.80;;;;;;;17.28;80.04;97532.50;5029469;28;20048;-64
2022/08/02 00:29:35;;;;;;;3.28;1.67;;;;;;;17.39;81.13;97528.53;5027431;28;20041;-64
2022/08/02 00:32:23;;;;;;;5.10;1.90;;;;;;;17.58;81.73;97521.47;5025133;28;20571;-64
2022/08/02 00:34:50;;;;;;;3.08;1.60;;;;;;;17.49;81.03;97526.75;5023743;28;20049;-64
2022/08/02 00:37:17;;;;;;;2.45;1.52;;;;;;;17.37;81.74;97528.03;5029139;28;20049;-64
2022/08/02 00:39:43;;;;;;;5.05;2.00;;;;;;;17.51;84.09;97532.78;5029512;28;20041;-64
2022/08/02 00:42:12;;;;;;;4.20;1.88;;;;;;;17.66;85.13;97523.53;5028728;28;20111;-64
2022/08/02 00:44:40;;;;;;;5.82;2.22;;;;;;;17.68;84.60;97526.78;5029592;28;20072;-64
2022/08/02 00:47:07;;;;;;;4.38;2.33;;;;;;;17.55;85.41;97522.88;5028872;28;20045;-64
2022/08/02 00:49:33;;;;;;;3.50;1.98;;;;;;;17.68;86.17;97522.13;5028605;28;20053;-64
2022/08/02 00:52:00;;;;;;;3.30;2.22;;;;;;;17.64;87.29;97523.84;5029338;28;20124;-64
2022/08/02 00:54:27;;;;;;;3.53;1.90;;;;;;;17.58;87.09;97525.00;5028833;28;20041;-63
2022/08/02 00:56:53;;;;;;;3.53;2.10;;;;;;;17.55;87.33;97531.88;5029032;28;20049;-63
2022/08/02 00:59:20;;;;;;;5.22;2.20;;;;;;;17.56;86.31;97527.22;5029027;28;20037;-64
2022/08/02 01:01:46;;;;;;;4.35;2.10;;;;;;;17.55;85.56;97523.66;5028403;28;20046;-63
2022/08/02 01:04:26;;;;;;;4.30;1.80;;;;;;;17.54;83.99;97524.78;5028960;28;20041;-64
2022/08/02 01:06:58;;;;;;;3.38;1.60;;;;;;;17.53;83.10;97517.69;5028542;28;20095;-63
2022/08/02 01:09:26;;;;;;;3.35;1.80;;;;;;;17.43;83.65;97523.28;5028882;28;20059;-64
2022/08/02 01:11:53;;;;;;;3.33;1.77;;;;;;;17.22;85.04;97523.56;5027896;28;20099;-64
2022/08/02 01:14:23;;;;;;;5.18;1.85;;;;;;;17.00;85.62;97526.78;5023838;28;20041;-63
2022/08/02 01:17:01;;;;;;;5.85;1.95;;;;;;;16.87;85.72;97526.34;5028791;28;20045;-64
2022/08/02 01:19:39;;;;;;;5.20;1.65;;;;;;;16.81;86.17;97526.69;5028431;28;20045;-63
2022/08/02 01:22:34;;;;;;;3.78;2.00;;;;;;;16.79;86.22;97535.19;5028284;28;20045;-63
2022/08/02 01:25:48;;;;;;;4.13;1.77;;;;;;;16.63;87.10;97531.78;4989699;28;20057;-63
2022/08/02 01:28:14;;;;;;;3.17;1.42;;;;;;;16.80;85.90;97538.75;5012085;28;20045;-63
2022/08/02 01:30:43;;;;;;;3.35;1.73;;;;;;;16.97;84.42;97539.13;5027995;28;20041;-64
2022/08/02 01:33:15;;;;;;;4.15;1.45;;;;;;;17.00;84.33;97549.44;5027067;28;20497;-63
2022/08/02 01:35:46;;;;;;;3.40;1.65;;;;;;;17.06;84.58;97546.72;5027940;28;20394;-64
2022/08/02 01:38:25;;;;;;;2.75;1.50;;;;;;;17.11;84.75;97542.00;5028328;28;20533;-63
2022/08/02 01:40:55;;;;;;;4.32;1.88;;;;;;;17.16;83.64;97547.41;5013575;28;20466;-64
2022/08/02 01:43:25;;;;;;;4.25;1.70;;;;;;;17.16;83.00;97550.16;5021535;28;20049;-64
2022/08/02 01:45:52;;;;;;;3.35;1.40;;;;;;;16.93;83.92;97550.91;5025792;28;20147;-64
2022/08/02 01:48:20;;;;;;;3.85;2.00;;;;;;;16.68;85.41;97560.97;5027647;28;20489;-64
2022/08/02 01:50:48;;;;;;;4.32;1.60;;;;;;;16.49;86.22;97557.06;5028156;28;20477;-63
2022/08/02 01:53:19;;;;;;;2.97;1.70;;;;;;;16.50;85.75;97557.84;5026258;28;20045;-64
2022/08/02 01:55:49;;;;;;;3.07;1.60;;;;;;;16.49;85.69;97548.03;5008267;28;20053;-64
2022/08/02 01:58:28;;;;;;;3.60;1.80;;;;;;;16.47;85.75;97556.53;5012246;28;20045;-63
2022/08/02 02:00:57;;;;;;;7.35;1.90;;;;;;;16.38;85.67;97550.88;5027998;28;20042;-64
2022/08/02 02:03:25;;;;;;;3.28;1.80;;;;;;;16.22;86.34;97549.34;5028265;28;20038;-63
2022/08/02 02:05:56;;;;;;;3.90;1.63;;;;;;;16.25;86.25;97560.50;5016440;28;20472;-63
2022/08/02 02:08:29;;;;;;;3.28;1.63;;;;;;;16.32;85.83;97562.91;5017214;28;20556;-63
2022/08/02 02:10:56;;;;;;;3.10;1.70;;;;;;;16.35;86.03;97561.53;5026892;28;20606;-63
2022/08/02 02:13:44;;;;;;;2.75;1.58;;;;;;;16.29;86.64;97557.22;5027896;28;20455;-63
2022/08/02 02:16:12;;;;;;;3.80;2.17;;;;;;;16.23;86.92;97556.44;5027161;28;20044;-63
2022/08/02 02:18:42;;;;;;;2.85;1.70;;;;;;;16.27;86.66;97553.94;5026153;28;20076;-63
2022/08/02 02:21:10;;;;;;;4.90;2.63;;;;;;;16.31;86.32;97549.53;5027496;28;20049;-63
2022/08/02 02:23:37;;;;;;;4.97;1.60;;;;;;;16.39;85.82;97543.47;5027645;28;20041;-63
2022/08/02 02:26:08;;;;;;;2.97;1.80;;;;;;;16.44;85.80;97546.16;5026950;28;20048;-63
2022/08/02 02:28:38;;;;;;;5.05;2.22;;;;;;;16.46;85.28;97543.97;5027463;28;20042;-63
2022/08/02 02:31:14;;;;;;;2.97;1.58;;;;;;;16.49;85.28;97542.56;5026896;28;20048;-63
2022/08/02 02:34:00;;;;;;;3.60;1.80;;;;;;;16.44;85.47;97526.22;5027585;28;20057;-63
2022/08/02 02:36:28;;;;;;;3.13;1.67;;;;;;;16.45;85.32;97525.13;5027189;28;20042;-63
2022/08/02 02:39:00;;;;;;;3.53;1.80;;;;;;;16.49;84.70;97516.06;5026448;28;20041;-64
2022/08/02 02:41:27;;;;;;;3.30;1.70;;;;;;;16.47;84.84;97521.00;5027170;28;20053;-63
2022/08/02 02:43:57;;;;;;;4.43;1.73;;;;;;;16.34;85.08;97513.47;5026293;28;20064;-64
2022/08/02 02:46:27;;;;;;;2.67;1.52;;;;;;;16.33;85.28;97511.84;5026841;28;20038;-63
2022/08/02 02:48:54;;;;;;;5.03;1.80;;;;;;;16.36;85.14;97505.78;5027409;28;20493;-64
2022/08/02 02:51:22;;;;;;;3.28;1.50;;;;;;;16.31;84.82;97509.38;5026411;28;20048;-64
2022/08/02 02:53:50;;;;;;;13.77;2.78;;;;;;;16.24;85.39;97504.25;5027077;28;20030;-64
2022/08/02 02:56:37;;;;;;;3.95;1.60;;;;;;;16.24;85.75;97509.72;5025706;28;20049;-64
2022/08/02 02:59:06;;;;;;;3.00;1.80;;;;;;;16.14;85.81;97515.25;5026141;28;20045;-64
2022/08/02 03:01:34;;;;;;;2.38;1.50;;;;;;;16.07;86.42;97509.31;5026726;28;20049;-64
2022/08/02 03:04:22;;;;;;;3.53;1.60;;;;;;;15.86;86.92;97523.06;5026182;28;20041;-64
2022/08/02 03:06:49;;;;;;;4.10;1.73;;;;;;;15.76;87.51;97521.22;5026249;28;20048;-63
2022/08/02 03:09:15;;;;;;;3.38;2.22;;;;;;;15.76;87.94;97523.13;5026140;28;20042;-63
2022/08/02 03:11:43;;;;;;;4.05;1.67;;;;;;;15.76;88.04;97525.84;5026442;28;20091;-63
2022/08/02 03:14:11;;;;;;;3.67;1.95;;;;;;;15.72;87.46;97531.06;5026803;28;20456;-64
2022/08/02 03:16:46;;;;;;;6.32;2.25;;;;;;;15.73;88.00;97522.59;5025605;28;20045;-64
2022/08/02 03:19:13;;;;;;;4.25;1.90;;;;;;;15.69;87.37;97527.00;5026207;28;20045;-63
2022/08/02 03:21:41;;;;;;;3.22;1.77;;;;;;;15.65;87.84;97525.91;5025074;28;20133;-59
2022/08/02 03:24:08;;;;;;;4.72;1.85;;;;;;;15.67;87.90;97523.72;5026681;28;20045;-58
2022/08/02 03:26:35;;;;;;;2.53;1.58;;;;;;;15.66;87.87;97521.28;5026212;28;20049;-59
2022/08/02 03:29:02;;;;;;;4.30;1.70;;;;;;;15.59;88.20;97524.31;5011413;28;20044;-58
2022/08/02 03:31:39;;;;;;;4.82;2.00;;;;;;;15.56;88.20;97533.06;5025948;28;20504;-58
2022/08/02 03:34:05;;;;;;;3.67;1.77;;;;;;;15.57;88.08;97534.69;5026677;28;20042;-58
2022/08/02 03:36:35;;;;;;;3.50;1.77;;;;;;;15.57;88.02;97529.22;5025782;28;20064;-57
2022/08/02 03:39:03;;;;;;;3.08;1.90;;;;;;;15.44;88.28;97534.19;5026219;28;20041;-57
2022/08/02 03:41:30;;;;;;;4.65;1.83;;;;;;;15.45;88.72;97535.03;5022913;28;20048;-59
2022/08/02 03:43:58;;;;;;;3.80;1.98;;;;;;;15.46;88.51;97532.03;5024857;28;20131;-59
2022/08/02 03:46:25;;;;;;;3.67;1.90;;;;;;;15.39;88.77;97545.16;5012312;28;20052;-58
2022/08/02 03:48:54;;;;;;;3.47;1.67;;;;;;;15.40;89.12;97543.25;5022587;28;20092;-59
2022/08/02 03:51:22;;;;;;;4.32;2.10;;;;;;;15.44;88.95;97545.13;5024459;28;20073;-59
2022/08/02 03:53:49;;;;;;;4.22;2.10;;;;;;;15.56;88.41;97552.97;5022370;28;20040;-58
2022/08/02 03:56:16;;;;;;;5.78;2.38;;;;;;;15.55;88.54;97548.63;5020310;28;20469;-59
2022/08/02 03:58:43;;;;;;;3.28;1.90;;;;;;;15.65;88.02;97557.84;5014159;28;20126;-60
2022/08/02 04:01:15;;;;;;;2.85;1.70;;;;;;;15.70;87.66;97560.56;5017529;28;20724;-57
2022/08/02 04:03:41;;;;;;;4.28;2.05;;;;;;;15.69;87.82;97558.91;5010979;28;20026;-57
2022/08/02 04:06:08;;;;;;;2.90;1.77;;;;;;;15.78;87.03;97559.16;5019682;28;20481;-59
2022/08/02 04:08:34;;;;;;;3.95;1.92;;;;;;;15.72;87.33;97563.81;5022903;28;20042;-59
2022/08/02 04:13:50;;;;;;;5.30;2.08;;;;;;;15.30;89.13;97563.19;5023313;28;20472;-59
2022/08/02 04:16:22;;;;;;;3.90;2.13;;;;;;;15.25;89.90;97560.50;5022038;28;20596;-58
2022/08/02 04:18:56;;;;;;;7.65;1.83;;;;;;;15.16;90.19;97563.78;5020617;28;20053;-57
2022/08/02 04:21:26;;;;;;;5.53;2.30;;;;;;;15.08;90.78;97570.59;5015825;28;20694;-59
2022/08/02 04:24:16;;;;;;;3.83;1.95;;;;;;;15.17;90.62;97570.88;5014247;28;20112;-58
2022/08/02 04:26:45;;;;;;;4.15;1.85;;;;;;;15.26;90.49;97573.03;5007842;28;20076;-59
2022/08/02 04:29:16;;;;;;;4.05;1.80;;;;;;;15.28;90.18;97568.09;5011785;28;20065;-58
2022/08/02 04:31:44;;;;;;;4.32;2.38;;;;;;;15.29;90.16;97575.22;5025029;28;20041;-58
2022/08/02 04:34:11;;;;;;;4.47;1.92;;;;;;;15.34;89.92;97586.09;5025477;28;20038;-57
2022/08/02 04:36:41;;;;;;;5.32;2.00;;;;;;;15.42;89.74;97581.97;5025172;28;20037;-57
2022/08/02 04:39:08;;;;;;;4.97;2.08;;;;;;;15.38;89.81;97579.00;5024305;28;20045;-55
2022/08/02 04:41:43;;;;;;;5.75;2.53;;;;;;;15.54;89.50;97577.00;5023538;28;20057;-59
2022/08/02 04:44:11;;;;;;;4.15;1.95;;;;;;;15.52;89.54;97579.19;5011992;28;20048;-58
2022/08/02 04:46:39;;;;;;;4.95;2.35;;;;;;;15.59;89.54;97576.19;5020249;28;20053;-58
2022/08/02 04:49:06;;;;;;;3.97;2.15;;;;;;;15.65;89.37;97575.03;5006802;28;20056;-57
2022/08/02 04:51:40;;;;;;;6.32;2.20;;;;;;;15.80;88.67;97579.63;5013431;28;20107;-64
2022/08/02 04:54:08;;;;;;;4.88;2.08;;;;;;;15.99;87.82;97568.88;5012608;28;20731;-63
2022/08/02 04:56:37;;;;;;;3.95;2.13;;;;;;;16.14;86.92;97577.28;5008318;28;20037;-63
2022/08/02 04:59:05;;;;;;;4.65;2.25;;;;;;;16.23;86.17;97568.19;5015521;28;20061;-63
2022/08/02 05:01:32;;;;;;;5.72;2.22;;;;;;;16.47;84.95;97572.91;5017241;28;20065;-63
2022/08/02 05:03:59;;;;;;;4.00;2.10;;;;;;;16.68;83.57;97578.22;5026596;28;20100;-63
2022/08/02 05:06:25;;;;;;;4.93;1.92;;;;;;;16.84;82.76;97578.88;5015918;28;20046;-64
2022/08/02 05:08:52;;;;;;;4.03;2.13;;;;;;;16.94;82.75;97582.63;5021687;28;20303;-63
2022/08/02 05:11:20;;;;;;;5.50;2.13;;;;;;;17.15;81.50;97581.31;5026495;28;20049;-63
2022/08/02 05:13:47;;;;;;;4.85;2.10;;;;;;;17.26;81.38;97584.78;5026788;28;20046;-64
2022/08/02 05:16:26;;;;;;;4.68;2.67;;;;;;;17.44;80.25;97590.63;5025870;28;20071;-63
2022/08/02 05:18:57;;;;;;;4.15;1.83;;;;;;;17.54;79.93;97582.25;5025625;28;20094;-64
2022/08/02 05:21:24;;;;;;;3.33;1.90;;;;;;;17.60;80.28;97577.56;5018632;28;20041;-63
2022/08/02 05:23:50;;;;;;;3.83;1.80;;;;;;;17.69;79.97;97574.97;5026240;28;20045;-63
2022/08/02 05:26:17;;;;;;;3.88;1.98;;;;;;;17.78;79.88;97569.66;5015579;28;20044;-64
2022/08/02 05:28:43;;;;;;;5.50;2.15;;;;;;;17.87;80.07;97570.63;5014097;28;20052;-63
2022/08/02 05:31:10;;;;;;;4.40;2.10;;;;;;;17.98;79.10;97568.53;5012853;28;20054;-63
2022/08/02 05:33:38;;;;;;;3.88;1.95;;;;;;;18.06;78.43;97573.34;5026178;28;20060;-64
2022/08/02 05:36:05;;;;;;;3.90;2.00;;;;;;;17.94;78.89;97562.03;5017754;28;20037;-63
2022/08/02 05:38:32;;;;;;;4.50;2.03;;;;;;;17.92;78.73;97567.00;5019291;28;20049;-63
2022/08/02 05:41:03;;;;;;;5.35;1.95;;;;;;;17.93;78.60;97571.38;5011938;28;20050;-64
2022/08/02 05:43:29;;;;;;;3.90;2.08;;;;;;;17.92;78.69;97576.00;5026079;28;20041;-63
2022/08/02 05:45:56;;;;;;;5.38;2.10;;;;;;;17.77;79.54;97573.50;5025910;28;20056;-63
2022/08/02 05:48:23;;;;;;;2.88;2.00;;;;;;;17.80;79.18;97573.72;5019673;28;20592;-63
2022/08/02 05:51:02;;;;;;;5.10;2.05;;;;;;;17.81;79.97;97575.34;5023355;28;20666;-63
2022/08/02 05:53:38;;;;;;;4.20;2.17;;;;;;;17.91;79.55;97574.41;5021592;28;20107;-63
2022/08/02 05:56:20;;;;;;;8.07;2.70;;;;;;;18.07;78.94;97585.94;5023025;28;20037;-63
2022/08/02 05:59:03;;;;;;;5.05;2.30;;;;;;;18.14;78.66;97587.53;5016987;28;20046;-63
2022/08/02 06:01:36;;;;;;;4.32;1.83;;;;;;;18.40;77.43;97584.41;5017274;28;20061;-63
2022/08/02 06:04:07;;;;;;;3.78;1.75;;;;;;;18.66;76.51;97581.25;5015581;28;20041;-64
2022/08/02 06:06:36;;;;;;;4.78;2.05;;;;;;;18.80;75.41;97584.84;5020238;28;20437;-63
2022/08/02 06:09:08;;;;;;;4.03;1.65;;;;;;;18.92;74.49;97587.13;5020502;28;20516;-64
2022/08/02 06:11:38;;;;;;;5.15;1.80;;;;;;;19.00;73.58;97593.84;5017793;28;20050;-63
2022/08/02 06:14:06;;;;;;;3.13;1.70;;;;;;;19.14;73.27;97595.81;5014305;28;20046;-63
2022/08/02 06:16:33;;;;;;;4.38;1.75;;;;;;;19.22;72.98;97590.44;5019161;28;20571;-63
2022/08/02 06:19:08;;;;;;;3.08;1.58;;;;;;;19.35;72.20;97601.75;5020525;28;20048;-63
2022/08/02 06:21:36;;;;;;;4.88;1.77;;;;;;;19.33;72.20;97599.28;5025237;28;20045;-64
2022/08/02 06:24:23;;;;;;;3.40;1.50;;;;;;;19.35;72.32;97593.50;5021620;28;20099;-63
2022/08/02 06:26:53;;;;;;;2.67;1.48;;;;;;;19.40;71.76;97593.41;5022249;28;20037;-64
2022/08/02 06:29:23;;;;;;;4.00;1.50;;;;;;;19.46;72.21;97586.66;5014902;28;20045;-63
2022/08/02 06:31:52;;;;;;;4.03;1.65;;;;;;;19.57;71.81;97584.53;5021911;28;20520;-63
2022/08/02 06:34:18;;;;;;;2.33;1.50;;;;;;;19.67;71.34;97586.25;5018180;28;20042;-63
2022/08/02 06:37:05;;;;;;;3.35;1.85;;;;;;;19.79;71.00;97582.19;5011568;28;20041;-63
2022/08/02 06:39:43;;;;;;;4.35;2.42;;;;;;;19.80;70.85;97576.38;5019393;28;20152;-64
2022/08/02 06:42:14;;;;;;;7.28;1.80;;;;;;;19.88;69.92;97581.16;5009248;28;20049;-63
2022/08/02 06:44:44;;;;;;;9.00;2.08;;;;;;;20.02;69.92;97585.84;5013895;28;20030;-63
2022/08/02 06:47:15;;;;;;;4.33;2.30;;;;;;;20.04;69.01;97580.03;5021037;28;20122;-64
2022/08/02 06:49:42;;;;;;;4.30;2.15;;;;;;;20.03;69.51;97581.97;5012386;28;20293;-63
2022/08/02 06:52:33;;;;;;;3.22;2.10;;;;;;;20.11;68.75;97586.72;5020246;28;20133;-63
2022/08/02 06:55:02;;;;;;;4.38;2.60;;;;;;;20.24;68.09;97592.50;5013695;28;20124;-64
2022/08/02 06:57:30;;;;;;;4.38;2.33;;;;;;;20.26;68.04;97596.56;5017607;28;20459;-63
2022/08/02 07:00:00;;;;;;;6.53;3.47;;;;;;;20.31;67.73;97601.09;5013378;28;20534;-63
2022/08/02 07:02:29;;;;;;;4.75;2.35;;;;;;;20.49;67.75;97598.53;5010118;28;20060;-64
2022/08/02 07:04:55;;;;;;;4.45;2.47;;;;;;;20.61;67.16;97595.19;5018658;28;20041;-61
2022/08/02 07:07:22;;;;;;;5.57;2.17;;;;;;;20.72;66.94;97593.81;5014982;28;21561;-67
2022/08/02 07:09:50;;;;;;;5.85;2.00;;;;;;;20.95;65.76;97591.06;5014107;28;20049;-68
2022/08/02 07:12:27;;;;;;;4.60;2.40;;;;;;;21.03;65.05;97589.47;5017234;28;20050;-67
2022/08/02 07:14:54;;;;;;;8.57;2.60;;;;;;;21.07;65.40;97590.47;5014799;28;20049;-63
2022/08/02 07:17:21;;;;;;;4.05;2.30;;;;;;;21.25;64.11;97596.06;5020649;28;20053;-68
2022/08/02 07:19:47;;;;;;;3.72;2.05;;;;;;;21.37;64.25;97587.22;5012702;28;20625;-62
2022/08/02 07:22:14;;;;;;;4.72;2.83;;;;;;;21.47;63.77;97584.16;5011174;28;20497;-66
2022/08/02 07:24:41;;;;;;;4.68;2.72;;;;;;;21.65;62.33;97585.03;5020565;28;20068;-72
2022/08/02 07:27:08;;;;;;;6.60;3.10;;;;;;;21.69;62.26;97586.03;5020764;28;20052;-69
2022/08/02 07:29:38;;;;;;;8.63;3.30;;;;;;;21.80;61.82;97577.47;5011061;28;20045;-65
2022/08/02 07:32:21;;;;;;;5.35;3.15;;;;;;;21.83;61.41;97588.66;5010275;28;20048;-67
2022/08/02 07:34:48;;;;;;;5.03;3.08;;;;;;;21.86;61.08;97590.00;5017100;28;20096;-67
2022/08/02 07:37:26;;;;;;;5.25;3.05;;;;;;;21.90;60.72;97607.50;5015709;28;20096;-66
2022/08/02 07:40:13;;;;;;;4.57;2.88;;;;;;;21.80;61.54;97608.63;5019362;28;20128;-68
2022/08/02 07:42:48;;;;;;;6.50;3.47;;;;;;;21.67;61.80;97612.28;5014624;28;20045;-61
2022/08/02 07:45:15;;;;;;;6.43;3.10;;;;;;;21.63;61.99;97614.03;5011940;28;20053;-60
2022/08/02 07:47:46;;;;;;;5.03;3.53;;;;;;;21.52;62.08;97613.53;5019749;28;20068;-61
2022/08/02 07:50:15;;;;;;;6.57;3.25;;;;;;;21.55;62.01;97621.97;5010842;28;20107;-67
2022/08/02 07:52:43;;;;;;;6.05;3.65;;;;;;;21.37;62.40;97617.53;5010424;28;20053;-60
2022/08/02 07:55:11;;;;;;;5.68;2.97;;;;;;;21.28;63.20;97612.78;5018210;28;20067;-60
2022/08/02 07:57:39;;;;;;;4.68;3.05;;;;;;;21.36;62.67;97613.13;5019724;28;20053;-59
2022/08/02 08:00:13;;;;;;;8.85;3.95;;;;;;;21.31;63.25;97614.88;5012094;28;20594;-63
2022/08/02 08:02:40;;;;;;;8.40;3.55;;;;;;;21.37;62.53;97615.56;5009354;28;20042;-68
2022/08/02 08:05:07;;;;;;;6.68;3.65;;;;;;;21.50;62.56;97613.03;5017902;28;20045;-61
2022/08/02 08:07:34;;;;;;;5.22;3.03;;;;;;;21.58;63.09;97606.72;5015790;28;20420;-70
2022/08/02 08:10:02;;;;;;;6.18;3.47;;;;;;;21.75;62.28;97608.78;5014274;28;20079;-69
2022/08/02 08:12:29;;;;;;;7.97;3.80;;;;;;;21.75;61.82;97607.94;5012590;28;20064;-63
2022/08/02 08:14:55;;;;;;;7.47;3.53;;;;;;;21.81;61.46;97617.69;5008662;28;20076;-62
2022/08/02 08:17:23;;;;;;;8.13;3.72;;;;;;;21.83;61.05;97609.91;5002710;28;20165;-68
2022/08/02 08:19:49;;;;;;;4.93;3.35;;;;;;;21.78;60.50;97605.34;5017654;28;20049;-71
2022/08/02 08:22:19;;;;;;;5.55;3.75;;;;;;;21.80;60.24;97616.06;5015797;28;20092;-67
2022/08/02 08:24:47;;;;;;;6.07;4.20;;;;;;;22.01;60.01;97609.94;5007736;28;20037;-67
2022/08/02 08:27:17;;;;;;;5.30;3.65;;;;;;;22.23;59.76;97611.75;5012107;28;20046;-69
2022/08/02 08:29:44;;;;;;;9.45;4.10;;;;;;;22.26;59.41;97613.84;5008789;28;20092;-69
2022/08/02 08:32:12;;;;;;;5.07;3.53;;;;;;;22.38;59.36;97602.19;5010936;28;20045;-68
2022/08/02 08:34:48;;;;;;;5.72;3.53;;;;;;;22.58;58.26;97605.44;5013133;28;20041;-75
2022/08/02 08:37:15;;;;;;;6.85;3.28;;;;;;;22.78;57.11;97608.69;5011932;28;20048;-71
2022/08/02 08:39:45;;;;;;;6.00;3.83;;;;;;;22.94;56.73;97611.72;5019156;28;20041;-67
2022/08/02 08:42:29;;;;;;;4.72;3.30;;;;;;;22.93;56.74;97605.41;5017322;28;20184;-70
2022/08/02 08:44:57;;;;;;;5.13;3.65;;;;;;;22.95;56.81;97594.00;5012942;28;20557;-66
2022/08/02 08:47:39;;;;;;;5.22;3.50;;;;;;;22.95;55.74;97603.13;5015339;28;20053;-71
2022/08/02 08:50:11;;;;;;;4.47;3.13;;;;;;;23.00;56.17;97594.66;5021837;28;20103;-71
2022/08/02 08:52:53;;;;;;;5.55;3.50;;;;;;;22.96;55.72;97598.41;5021615;28;20034;-72
2022/08/02 08:55:23;;;;;;;5.63;3.50;;;;;;;23.01;56.07;97601.00;5022476;28;20113;-62
2022/08/02 08:57:52;;;;;;;5.97;3.38;;;;;;;23.08;55.39;97593.03;5021499;28;20659;-73
2022/08/02 09:00:20;;;;;;;5.82;3.45;;;;;;;23.06;55.20;97594.47;5019015;28;20037;-62
2022/08/02 09:02:46;;;;;;;4.72;3.30;;;;;;;23.27;54.28;97597.34;5023347;28;20091;-70
2022/08/02 09:05:15;;;;;;;5.50;3.10;;;;;;;23.43;54.04;97605.13;5012985;28;20135;-71
2022/08/02 09:07:45;;;;;;;9.20;3.72;;;;;;;23.51;53.80;97595.97;5013687;28;20045;-70
2022/08/02 09:10:38;;;;;;;4.30;2.97;;;;;;;23.50;53.74;97588.81;5011737;28;20064;-73
2022/08/02 09:13:06;;;;;;;4.63;3.20;;;;;;;23.63;53.29;97587.78;5012284;28;20041;-64
2022/08/02 09:15:58;;;;;;;4.90;3.42;;;;;;;23.73;53.67;97585.78;5019817;28;20069;-65
2022/08/02 09:18:42;;;;;;;5.45;3.30;;;;;;;23.57;53.13;97593.81;5013352;28;20072;-66
2022/08/02 09:21:09;;;;;;;6.32;3.65;;;;;;;23.69;53.73;97593.91;5017144;28;20049;-66
2022/08/02 09:23:41;;;;;;;6.15;3.33;;;;;;;23.56;53.66;97592.22;5018566;28;20049;-67
2022/08/02 09:26:10;;;;;;;7.43;3.13;;;;;;;23.66;53.33;97586.28;5019321;28;20046;-64
2022/08/02 09:28:39;;;;;;;5.55;3.22;;;;;;;23.67;53.58;97582.41;5012712;28;20049;-65
2022/08/02 09:31:17;;;;;;;5.40;2.90;;;;;;;23.93;53.23;97578.66;5013276;28;20041;-65
2022/08/02 09:33:49;;;;;;;8.07;3.00;;;;;;;24.27;51.39;97576.81;5019363;28;20056;-66
2022/08/02 09:36:17;;;;;;;4.60;3.20;;;;;;;24.39;50.91;97589.91;5016127;28;20042;-64
2022/08/02 09:38:58;;;;;;;4.55;3.25;;;;;;;24.18;51.08;97589.09;5020808;28;20049;-70
2022/08/02 09:41:26;;;;;;;4.90;3.25;;;;;;;24.26;50.47;97583.50;5008166;28;20042;-70
2022/08/02 09:43:55;;;;;;;6.25;3.28;;;;;;;24.21;50.87;97593.97;5014918;28;20128;-71
2022/08/02 09:46:40;;;;;;;7.03;3.40;;;;;;;24.03;51.25;97591.28;5013843;28;20497;-69
2022/08/02 09:49:10;;;;;;;7.55;3.50;;;;;;;23.99;51.41;97582.84;5018814;28;20041;-68
2022/08/02 09:51:39;;;;;;;4.60;2.88;;;;;;;24.07;51.50;97589.47;5028269;28;20073;-68
2022/08/02 09:54:10;;;;;;;5.18;3.28;;;;;;;24.14;51.01;97591.72;5017837;28;20045;-76
2022/08/02 09:56:44;;;;;;;5.78;3.17;;;;;;;24.24;51.27;97590.50;5012457;28;20052;-69
2022/08/02 09:59:13;;;;;;;4.63;2.83;;;;;;;24.46;50.70;97594.09;5011253;28;20042;-66
2022/08/02 10:01:41;;;;;;;5.20;2.90;;;;;;;24.58;50.31;97591.34;5007224;28;20657;-70
2022/08/02 10:04:22;;;;;;;4.20;3.03;;;;;;;24.66;49.94;97586.91;5017011;28;20053;-71
2022/08/02 10:06:52;;;;;;;4.60;3.03;;;;;;;25.01;48.69;97581.03;5011935;28;20052;-66
2022/08/02 10:09:19;;;;;;;5.65;3.08;;;;;;;24.83;49.01;97574.81;5022115;28;20527;-69
2022/08/02 10:11:46;;;;;;;5.05;3.00;;;;;;;25.35;47.68;97572.63;5016723;28;20071;-71
2022/08/02 10:14:13;;;;;;;4.28;2.97;;;;;;;25.67;47.17;97578.44;5012423;28;20087;-69
2022/08/02 10:16:42;;;;;;;7.68;3.10;;;;;;;25.89;46.23;97570.78;5010497;28;20034;-72
2022/08/02 10:19:09;;;;;;;14.02;3.20;;;;;;;25.91;46.01;97564.91;5014742;28;20107;-72
2022/08/02 10:21:48;;;;;;;3.90;2.75;;;;;;;26.32;44.20;97565.72;5019029;28;20045;-71
2022/08/02 10:24:36;;;;;;;5.72;2.65;;;;;;;26.39;43.47;97565.16;5016646;28;20041;-71
2022/08/02 10:27:03;;;;;;;6.00;2.78;;;;;;;26.49;44.35;97561.88;5010185;28;20053;-71
2022/08/02 10:29:35;;;;;;;4.13;2.90;;;;;;;26.60;44.11;97562.16;5021438;28;20492;-70
2022/08/02 10:32:30;;;;;;;6.03;2.97;;;;;;;26.47;44.06;97557.84;5015499;28;20115;-70
2022/08/02 10:35:05;;;;;;;4.47;2.88;;;;;;;26.68;42.67;97557.59;5018414;28;20050;-65
2022/08/02 10:38:00;;;;;;;4.10;2.80;;;;;;;26.52;43.68;97552.00;5016761;28;20049;-66
2022/08/02 10:40:45;;;;;;;5.63;2.83;;;;;;;26.64;44.27;97556.69;5011591;28;20552;-65
2022/08/02 10:43:12;;;;;;;4.85;2.88;;;;;;;26.67;43.76;97552.41;5014614;28;20064;-73
2022/08/02 10:45:39;;;;;;;3.95;2.88;;;;;;;26.66;43.89;97540.50;5015067;28;20072;-73
2022/08/02 10:48:11;;;;;;;5.25;2.65;;;;;;;26.85;43.15;97550.09;5016166;28;20476;-67
2022/08/02 10:50:46;;;;;;;5.55;2.72;;;;;;;27.01;42.94;97550.16;5017803;28;20048;-66
2022/08/02 10:53:23;;;;;;;4.30;2.90;;;;;;;26.93;42.44;97545.56;5018067;28;20056;-67
2022/08/02 10:55:51;;;;;;;4.53;2.22;;;;;;;26.90;42.59;97549.84;5008432;28;20600;-69
2022/08/02 10:58:23;;;;;;;4.22;2.90;;;;;;;26.65;41.59;97540.84;5016145;28;20049;-71
2022/08/02 11:00:53;;;;;;;3.47;2.40;;;;;;;25.84;43.07;97537.75;5016744;28;20045;-70
2022/08/02 11:03:28;;;;;;;6.13;2.80;;;;;;;26.31;43.38;97535.56;5014886;28;20091;-72
2022/08/02 11:06:03;;;;;;;5.45;2.22;;;;;;;26.62;42.81;97534.88;5008126;28;20042;-71
2022/08/02 11:08:30;;;;;;;4.05;2.47;;;;;;;26.72;41.83;97530.75;5020710;28;20103;-73
2022/08/02 11:11:15;;;;;;;4.60;2.80;;;;;;;26.79;41.77;97529.31;5009756;28;20057;-72
2022/08/02 11:14:01;;;;;;;4.03;2.33;;;;;;;26.73;42.08;97532.38;5023291;28;20053;-72
2022/08/02 11:16:56;;;;;;;4.13;2.50;;;;;;;26.94;41.68;97528.53;5017270;28;20356;-71
2022/08/02 11:19:24;;;;;;;3.67;2.47;;;;;;;26.95;41.37;97529.38;5018745;28;20509;-73
2022/08/02 11:22:03;;;;;;;4.13;2.20;;;;;;;27.10;41.90;97531.34;5015340;28;20052;-75
2022/08/02 11:24:37;;;;;;;3.30;2.10;;;;;;;26.86;42.55;97524.75;5019427;28;20037;-73
2022/08/02 11:27:08;;;;;;;5.80;2.78;;;;;;;26.54;42.93;97523.91;5036455;28;20038;-71
2022/08/02 11:29:36;;;;;;;4.00;2.30;;;;;;;26.86;42.37;97519.19;5014329;28;20773;-72
2022/08/02 11:32:06;;;;;;;5.20;2.60;;;;;;;27.03;41.71;97525.59;5011176;28;20103;-65
2022/08/02 11:34:33;;;;;;;4.82;2.33;;;;;;;27.06;41.46;97519.34;5012795;28;20045;-65
2022/08/02 11:37:04;;;;;;;4.53;2.35;;;;;;;26.99;42.21;97517.19;5010855;28;20053;-63
2022/08/02 11:39:30;;;;;;;4.40;2.58;;;;;;;26.83;41.55;97513.56;5013118;28;20535;-66
2022/08/02 11:41:59;;;;;;;4.80;2.40;;;;;;;27.37;40.52;97509.38;5022300;28;20038;-71
2022/08/02 11:44:28;;;;;;;4.28;2.00;;;;;;;27.86;39.81;97507.28;5016817;28;20764;-75
2022/08/02 11:47:01;;;;;;;4.60;2.50;;;;;;;27.69;39.39;97499.38;5011116;28;20042;-71
2022/08/02 11:49:28;;;;;;;3.42;2.20;;;;;;;27.94;39.03;97502.72;5015702;28;20041;-66
2022/08/02 11:52:06;;;;;;;4.13;2.15;;;;;;;27.82;39.64;97505.63;5013985;28;20065;-66
2022/08/02 11:54:35;;;;;;;3.67;2.25;;;;;;;27.92;38.83;97500.28;5015505;28;20136;-66